sensor_id;sensor_type;location;lat;lon;timestamp;P1;durP1;ratioP1;P2;durP2;ratioP2
18265;SDS011;9259;48.194;16.322;2022-08-18T00:00:30;9.15;;;4.75;;
18265;SDS011;9259;48.194;16.322;2022-08-18T00:03:03;9.77;;;5.00;;
18265;SDS011;9259;48.194;16.322;2022-08-18T00:05:35;7.18;;;4.70;;
18265;SDS011;9259;48.194;16.322;2022-08-18T00:08:03;10.48;;;5.30;;
18265;SDS011;9259;48.194;16.322;2022-08-18T00:10:32;11.75;;;5.30;;
18265;SDS011;9259;48.194;16.322;2022-08-18T00:13:00;10.38;;;5.72;;
18265;SDS011;9259;48.194;16.322;2022-08-18T00:15:28;9.80;;;5.13;;
18265;SDS011;9259;48.194;16.322;2022-08-18T00:17:56;13.77;;;5.45;;
18265;SDS011;9259;48.194;16.322;2022-08-18T00:20:24;11.52;;;5.20;;
18265;SDS011;9259;48.194;16.322;2022-08-18T00:22:53;8.98;;;5.43;;
18265;SDS011;9259;48.194;16.322;2022-08-18T00:25:22;10.57;;;5.03;;
18265;SDS011;9259;48.194;16.322;2022-08-18T00:27:50;9.85;;;5.47;;
18265;SDS011;9259;48.194;16.322;2022-08-18T00:30:19;10.75;;;5.20;;
18265;SDS011;9259;48.194;16.322;2022-08-18T00:32:48;9.68;;;5.15;;
18265;SDS011;9259;48.194;16.322;2022-08-18T00:35:18;7.18;;;4.88;;
18265;SDS011;9259;48.194;16.322;2022-08-18T00:37:51;8.10;;;5.25;;
18265;SDS011;9259;48.194;16.322;2022-08-18T00:40:26;9.68;;;5.05;;
18265;SDS011;9259;48.194;16.322;2022-08-18T00:42:58;8.65;;;5.28;;
18265;SDS011;9259;48.194;16.322;2022-08-18T00:45:28;8.90;;;5.10;;
18265;SDS011;9259;48.194;16.322;2022-08-18T00:48:01;8.13;;;4.85;;
18265;SDS011;9259;48.194;16.322;2022-08-18T00:50:31;10.75;;;5.50;;
18265;SDS011;9259;48.194;16.322;2022-08-18T00:53:05;6.60;;;4.95;;
18265;SDS011;9259;48.194;16.322;2022-08-18T00:55:38;10.27;;;5.00;;
18265;SDS011;9259;48.194;16.322;2022-08-18T00:58:08;7.28;;;4.82;;
18265;SDS011;9259;48.194;16.322;2022-08-18T01:00:41;7.05;;;4.70;;
18265;SDS011;9259;48.194;16.322;2022-08-18T01:03:10;7.40;;;5.45;;
18265;SDS011;9259;48.194;16.322;2022-08-18T01:05:44;9.13;;;5.05;;
18265;SDS011;9259;48.194;16.322;2022-08-18T01:08:22;10.85;;;5.30;;
18265;SDS011;9259;48.194;16.322;2022-08-18T01:10:51;9.00;;;4.90;;
18265;SDS011;9259;48.194;16.322;2022-08-18T01:13:20;11.60;;;5.50;;
18265;SDS011;9259;48.194;16.322;2022-08-18T01:15:57;10.68;;;4.88;;
18265;SDS011;9259;48.194;16.322;2022-08-18T01:18:46;8.60;;;4.72;;
18265;SDS011;9259;48.194;16.322;2022-08-18T01:21:31;7.00;;;5.03;;
18265;SDS011;9259;48.194;16.322;2022-08-18T01:24:20;11.10;;;5.00;;
18265;SDS011;9259;48.194;16.322;2022-08-18T01:27:07;7.15;;;4.70;;
18265;SDS011;9259;48.194;16.322;2022-08-18T01:29:42;6.82;;;4.50;;
18265;SDS011;9259;48.194;16.322;2022-08-18T01:32:13;8.82;;;5.10;;
18265;SDS011;9259;48.194;16.322;2022-08-18T01:34:44;8.75;;;5.10;;
18265;SDS011;9259;48.194;16.322;2022-08-18T01:37:13;6.65;;;4.57;;
18265;SDS011;9259;48.194;16.322;2022-08-18T01:39:45;11.18;;;5.20;;
18265;SDS011;9259;48.194;16.322;2022-08-18T01:42:14;8.65;;;5.53;;
18265;SDS011;9259;48.194;16.322;2022-08-18T01:44:43;10.07;;;4.88;;
18265;SDS011;9259;48.194;16.322;2022-08-18T01:47:12;7.65;;;5.10;;
18265;SDS011;9259;48.194;16.322;2022-08-18T01:49:41;9.85;;;5.00;;
18265;SDS011;9259;48.194;16.322;2022-08-18T01:52:10;7.82;;;5.03;;
18265;SDS011;9259;48.194;16.322;2022-08-18T01:54:46;8.27;;;5.15;;
18265;SDS011;9259;48.194;16.322;2022-08-18T01:57:16;8.73;;;5.55;;
18265;SDS011;9259;48.194;16.322;2022-08-18T01:59:45;7.82;;;4.85;;
18265;SDS011;9259;48.194;16.322;2022-08-18T02:02:14;12.57;;;4.95;;
18265;SDS011;9259;48.194;16.322;2022-08-18T02:04:49;9.32;;;5.32;;
18265;SDS011;9259;48.194;16.322;2022-08-18T02:07:19;7.95;;;5.28;;
18265;SDS011;9259;48.194;16.322;2022-08-18T02:09:49;7.88;;;5.55;;
18265;SDS011;9259;48.194;16.322;2022-08-18T02:12:16;7.80;;;5.00;;
18265;SDS011;9259;48.194;16.322;2022-08-18T02:14:45;11.23;;;4.93;;
18265;SDS011;9259;48.194;16.322;2022-08-18T02:17:13;7.93;;;5.43;;
18265;SDS011;9259;48.194;16.322;2022-08-18T02:19:41;9.00;;;5.25;;
18265;SDS011;9259;48.194;16.322;2022-08-18T02:22:12;9.68;;;5.38;;
18265;SDS011;9259;48.194;16.322;2022-08-18T02:24:44;7.85;;;5.32;;
18265;SDS011;9259;48.194;16.322;2022-08-18T02:27:14;7.78;;;4.65;;
18265;SDS011;9259;48.194;16.322;2022-08-18T02:29:43;7.93;;;5.43;;
18265;SDS011;9259;48.194;16.322;2022-08-18T02:32:11;13.02;;;5.28;;
18265;SDS011;9259;48.194;16.322;2022-08-18T02:34:38;9.30;;;5.10;;
18265;SDS011;9259;48.194;16.322;2022-08-18T02:37:07;11.98;;;5.72;;
18265;SDS011;9259;48.194;16.322;2022-08-18T02:39:36;8.77;;;5.80;;
18265;SDS011;9259;48.194;16.322;2022-08-18T02:42:04;10.90;;;5.40;;
18265;SDS011;9259;48.194;16.322;2022-08-18T02:44:35;10.55;;;5.32;;
18265;SDS011;9259;48.194;16.322;2022-08-18T02:47:03;14.60;;;5.50;;
18265;SDS011;9259;48.194;16.322;2022-08-18T02:49:31;9.75;;;5.68;;
18265;SDS011;9259;48.194;16.322;2022-08-18T02:51:58;12.23;;;5.60;;
18265;SDS011;9259;48.194;16.322;2022-08-18T02:54:26;11.93;;;5.40;;
18265;SDS011;9259;48.194;16.322;2022-08-18T02:56:54;10.15;;;5.70;;
18265;SDS011;9259;48.194;16.322;2022-08-18T02:59:24;8.98;;;5.53;;
18265;SDS011;9259;48.194;16.322;2022-08-18T03:01:54;10.55;;;5.90;;
18265;SDS011;9259;48.194;16.322;2022-08-18T03:04:23;8.75;;;5.68;;
18265;SDS011;9259;48.194;16.322;2022-08-18T03:06:54;9.07;;;5.63;;
18265;SDS011;9259;48.194;16.322;2022-08-18T03:09:25;11.65;;;5.82;;
18265;SDS011;9259;48.194;16.322;2022-08-18T03:11:53;9.70;;;6.43;;
18265;SDS011;9259;48.194;16.322;2022-08-18T03:14:21;10.48;;;5.53;;
18265;SDS011;9259;48.194;16.322;2022-08-18T03:16:49;14.27;;;5.72;;
18265;SDS011;9259;48.194;16.322;2022-08-18T03:19:18;11.57;;;5.72;;
18265;SDS011;9259;48.194;16.322;2022-08-18T03:21:47;7.63;;;5.57;;
18265;SDS011;9259;48.194;16.322;2022-08-18T03:24:15;8.98;;;5.75;;
18265;SDS011;9259;48.194;16.322;2022-08-18T03:26:43;9.98;;;5.63;;
18265;SDS011;9259;48.194;16.322;2022-08-18T03:29:18;11.95;;;5.55;;
18265;SDS011;9259;48.194;16.322;2022-08-18T03:31:47;10.75;;;5.75;;
18265;SDS011;9259;48.194;16.322;2022-08-18T03:34:16;9.38;;;5.55;;
18265;SDS011;9259;48.194;16.322;2022-08-18T03:36:49;12.93;;;6.00;;
18265;SDS011;9259;48.194;16.322;2022-08-18T03:39:18;11.43;;;5.97;;
18265;SDS011;9259;48.194;16.322;2022-08-18T03:41:49;7.50;;;5.22;;
18265;SDS011;9259;48.194;16.322;2022-08-18T03:44:19;9.25;;;5.93;;
18265;SDS011;9259;48.194;16.322;2022-08-18T03:46:48;8.48;;;5.90;;
18265;SDS011;9259;48.194;16.322;2022-08-18T03:49:18;10.55;;;6.10;;
18265;SDS011;9259;48.194;16.322;2022-08-18T03:51:47;7.38;;;5.47;;
18265;SDS011;9259;48.194;16.322;2022-08-18T03:54:16;9.68;;;5.80;;
18265;SDS011;9259;48.194;16.322;2022-08-18T03:56:45;9.85;;;6.13;;
18265;SDS011;9259;48.194;16.322;2022-08-18T03:59:15;8.98;;;6.40;;
18265;SDS011;9259;48.194;16.322;2022-08-18T04:01:45;9.10;;;5.72;;
18265;SDS011;9259;48.194;16.322;2022-08-18T04:04:22;10.10;;;6.10;;
18265;SDS011;9259;48.194;16.322;2022-08-18T04:06:55;10.80;;;6.00;;
18265;SDS011;9259;48.194;16.322;2022-08-18T04:09:29;13.38;;;6.07;;
18265;SDS011;9259;48.194;16.322;2022-08-18T04:12:17;12.68;;;6.60;;
18265;SDS011;9259;48.194;16.322;2022-08-18T04:15:04;11.88;;;6.53;;
18265;SDS011;9259;48.194;16.322;2022-08-18T04:17:51;12.27;;;6.28;;
18265;SDS011;9259;48.194;16.322;2022-08-18T04:20:39;9.18;;;6.18;;
18265;SDS011;9259;48.194;16.322;2022-08-18T04:23:25;11.98;;;6.03;;
18265;SDS011;9259;48.194;16.322;2022-08-18T04:25:56;11.65;;;5.85;;
18265;SDS011;9259;48.194;16.322;2022-08-18T04:28:26;9.13;;;6.15;;
18265;SDS011;9259;48.194;16.322;2022-08-18T04:30:55;14.88;;;6.60;;
18265;SDS011;9259;48.194;16.322;2022-08-18T04:33:24;15.27;;;5.90;;
18265;SDS011;9259;48.194;16.322;2022-08-18T04:35:54;21.73;;;6.20;;
18265;SDS011;9259;48.194;16.322;2022-08-18T04:38:22;10.70;;;6.05;;
18265;SDS011;9259;48.194;16.322;2022-08-18T04:40:50;11.00;;;5.60;;
18265;SDS011;9259;48.194;16.322;2022-08-18T04:43:18;19.90;;;6.75;;
18265;SDS011;9259;48.194;16.322;2022-08-18T04:45:46;15.05;;;6.03;;
18265;SDS011;9259;48.194;16.322;2022-08-18T04:48:15;15.30;;;6.63;;
18265;SDS011;9259;48.194;16.322;2022-08-18T04:50:43;13.45;;;5.97;;
18265;SDS011;9259;48.194;16.322;2022-08-18T04:53:12;10.07;;;6.75;;
18265;SDS011;9259;48.194;16.322;2022-08-18T04:56:12;11.13;;;6.13;;
18265;SDS011;9259;48.194;16.322;2022-08-18T04:58:44;13.70;;;6.55;;
18265;SDS011;9259;48.194;16.322;2022-08-18T05:01:15;17.67;;;6.97;;
18265;SDS011;9259;48.194;16.322;2022-08-18T05:03:44;15.05;;;7.13;;
18265;SDS011;9259;48.194;16.322;2022-08-18T05:06:12;9.48;;;5.78;;
18265;SDS011;9259;48.194;16.322;2022-08-18T05:08:41;11.00;;;6.43;;
18265;SDS011;9259;48.194;16.322;2022-08-18T05:11:09;13.48;;;6.07;;
18265;SDS011;9259;48.194;16.322;2022-08-18T05:13:37;10.85;;;6.10;;
18265;SDS011;9259;48.194;16.322;2022-08-18T05:16:05;10.93;;;6.43;;
18265;SDS011;9259;48.194;16.322;2022-08-18T05:18:34;12.25;;;6.50;;
18265;SDS011;9259;48.194;16.322;2022-08-18T05:21:05;12.85;;;6.65;;
18265;SDS011;9259;48.194;16.322;2022-08-18T05:23:39;13.63;;;7.05;;
18265;SDS011;9259;48.194;16.322;2022-08-18T05:26:09;12.35;;;6.85;;
18265;SDS011;9259;48.194;16.322;2022-08-18T05:28:38;13.43;;;7.35;;
18265;SDS011;9259;48.194;16.322;2022-08-18T05:31:07;13.98;;;6.97;;
18265;SDS011;9259;48.194;16.322;2022-08-18T05:33:39;12.35;;;7.03;;
18265;SDS011;9259;48.194;16.322;2022-08-18T05:36:09;11.60;;;6.45;;
18265;SDS011;9259;48.194;16.322;2022-08-18T05:38:57;16.27;;;6.72;;
18265;SDS011;9259;48.194;16.322;2022-08-18T05:41:42;17.85;;;6.95;;
18265;SDS011;9259;48.194;16.322;2022-08-18T05:44:15;13.07;;;6.47;;
18265;SDS011;9259;48.194;16.322;2022-08-18T05:46:49;17.77;;;6.63;;
18265;SDS011;9259;48.194;16.322;2022-08-18T05:49:19;10.40;;;6.50;;
18265;SDS011;9259;48.194;16.322;2022-08-18T05:51:53;12.57;;;6.90;;
18265;SDS011;9259;48.194;16.322;2022-08-18T05:54:26;16.90;;;6.28;;
18265;SDS011;9259;48.194;16.322;2022-08-18T05:57:20;12.70;;;6.45;;
18265;SDS011;9259;48.194;16.322;2022-08-18T05:59:50;18.27;;;6.68;;
18265;SDS011;9259;48.194;16.322;2022-08-18T06:02:23;9.45;;;6.28;;
18265;SDS011;9259;48.194;16.322;2022-08-18T06:04:59;12.30;;;6.45;;
18265;SDS011;9259;48.194;16.322;2022-08-18T06:07:33;16.50;;;6.82;;
18265;SDS011;9259;48.194;16.322;2022-08-18T06:10:09;11.98;;;6.00;;
18265;SDS011;9259;48.194;16.322;2022-08-18T06:12:39;11.38;;;6.55;;
18265;SDS011;9259;48.194;16.322;2022-08-18T06:15:11;15.60;;;6.18;;
18265;SDS011;9259;48.194;16.322;2022-08-18T06:20:51;16.80;;;6.03;;
18265;SDS011;9259;48.194;16.322;2022-08-18T06:23:47;11.60;;;6.28;;
18265;SDS011;9259;48.194;16.322;2022-08-18T06:26:29;10.05;;;6.10;;
18265;SDS011;9259;48.194;16.322;2022-08-18T06:29:07;13.30;;;6.00;;
18265;SDS011;9259;48.194;16.322;2022-08-18T06:31:47;11.90;;;6.18;;
18265;SDS011;9259;48.194;16.322;2022-08-18T06:34:30;15.00;;;5.97;;
18265;SDS011;9259;48.194;16.322;2022-08-18T06:37:15;14.13;;;5.95;;
18265;SDS011;9259;48.194;16.322;2022-08-18T06:39:50;9.88;;;6.65;;
18265;SDS011;9259;48.194;16.322;2022-08-18T06:42:21;10.45;;;6.20;;
18265;SDS011;9259;48.194;16.322;2022-08-18T06:44:56;12.52;;;6.57;;
18265;SDS011;9259;48.194;16.322;2022-08-18T06:47:33;16.02;;;6.47;;
18265;SDS011;9259;48.194;16.322;2022-08-18T06:50:10;11.25;;;5.85;;
18265;SDS011;9259;48.194;16.322;2022-08-18T06:52:50;10.73;;;5.72;;
18265;SDS011;9259;48.194;16.322;2022-08-18T06:55:30;13.10;;;5.90;;
18265;SDS011;9259;48.194;16.322;2022-08-18T06:58:04;8.68;;;5.70;;
18265;SDS011;9259;48.194;16.322;2022-08-18T07:00:53;12.52;;;6.03;;
18265;SDS011;9259;48.194;16.322;2022-08-18T07:03:39;19.10;;;6.78;;
18265;SDS011;9259;48.194;16.322;2022-08-18T07:06:10;13.25;;;6.15;;
18265;SDS011;9259;48.194;16.322;2022-08-18T07:08:54;11.30;;;6.15;;
18265;SDS011;9259;48.194;16.322;2022-08-18T07:11:59;12.75;;;6.43;;
18265;SDS011;9259;48.194;16.322;2022-08-18T07:14:31;16.95;;;6.60;;
18265;SDS011;9259;48.194;16.322;2022-08-18T07:17:12;10.88;;;6.10;;
18265;SDS011;9259;48.194;16.322;2022-08-18T07:19:54;16.90;;;6.20;;
18265;SDS011;9259;48.194;16.322;2022-08-18T07:22:30;10.23;;;6.00;;
18265;SDS011;9259;48.194;16.322;2022-08-18T07:25:00;9.10;;;5.78;;
18265;SDS011;9259;48.194;16.322;2022-08-18T07:27:42;11.43;;;5.50;;
18265;SDS011;9259;48.194;16.322;2022-08-18T07:30:23;11.30;;;5.60;;
18265;SDS011;9259;48.194;16.322;2022-08-18T07:32:57;10.52;;;5.93;;
18265;SDS011;9259;48.194;16.322;2022-08-18T07:35:38;11.32;;;5.55;;
18265;SDS011;9259;48.194;16.322;2022-08-18T07:38:12;8.23;;;5.80;;
18265;SDS011;9259;48.194;16.322;2022-08-18T07:40:52;9.60;;;5.35;;
18265;SDS011;9259;48.194;16.322;2022-08-18T07:43:28;9.18;;;5.65;;
18265;SDS011;9259;48.194;16.322;2022-08-18T07:46:04;6.88;;;5.13;;
18265;SDS011;9259;48.194;16.322;2022-08-18T07:48:40;9.57;;;5.75;;
18265;SDS011;9259;48.194;16.322;2022-08-18T07:51:10;9.55;;;5.13;;
18265;SDS011;9259;48.194;16.322;2022-08-18T07:53:51;6.47;;;4.85;;
18265;SDS011;9259;48.194;16.322;2022-08-18T07:56:31;7.38;;;4.70;;
18265;SDS011;9259;48.194;16.322;2022-08-18T07:59:09;8.90;;;5.07;;
18265;SDS011;9259;48.194;16.322;2022-08-18T08:01:46;9.43;;;5.10;;
18265;SDS011;9259;48.194;16.322;2022-08-18T08:04:23;9.10;;;5.28;;
18265;SDS011;9259;48.194;16.322;2022-08-18T08:07:00;5.50;;;4.50;;
18265;SDS011;9259;48.194;16.322;2022-08-18T08:09:37;8.57;;;4.70;;
18265;SDS011;9259;48.194;16.322;2022-08-18T08:12:17;10.98;;;5.32;;
18265;SDS011;9259;48.194;16.322;2022-08-18T08:14:58;10.30;;;5.38;;
18265;SDS011;9259;48.194;16.322;2022-08-18T08:17:39;7.63;;;5.28;;
18265;SDS011;9259;48.194;16.322;2022-08-18T08:20:21;9.13;;;5.03;;
18265;SDS011;9259;48.194;16.322;2022-08-18T08:22:56;7.80;;;4.72;;
18265;SDS011;9259;48.194;16.322;2022-08-18T08:25:42;10.02;;;4.68;;
18265;SDS011;9259;48.194;16.322;2022-08-18T08:28:25;7.68;;;4.65;;
18265;SDS011;9259;48.194;16.322;2022-08-18T08:31:03;6.88;;;5.30;;
18265;SDS011;9259;48.194;16.322;2022-08-18T08:33:37;6.90;;;4.72;;
18265;SDS011;9259;48.194;16.322;2022-08-18T08:36:12;5.65;;;4.50;;
18265;SDS011;9259;48.194;16.322;2022-08-18T08:38:46;9.25;;;5.10;;
18265;SDS011;9259;48.194;16.322;2022-08-18T08:41:19;8.95;;;4.75;;
18265;SDS011;9259;48.194;16.322;2022-08-18T08:43:54;10.55;;;4.50;;
18265;SDS011;9259;48.194;16.322;2022-08-18T08:46:26;8.63;;;4.40;;
18265;SDS011;9259;48.194;16.322;2022-08-18T08:48:58;8.68;;;4.30;;
18265;SDS011;9259;48.194;16.322;2022-08-18T08:51:33;6.80;;;4.20;;
18265;SDS011;9259;48.194;16.322;2022-08-18T08:54:05;9.57;;;4.38;;
18265;SDS011;9259;48.194;16.322;2022-08-18T08:56:38;8.65;;;4.57;;
18265;SDS011;9259;48.194;16.322;2022-08-18T08:59:11;7.82;;;4.88;;
18265;SDS011;9259;48.194;16.322;2022-08-18T09:01:42;5.90;;;4.25;;
18265;SDS011;9259;48.194;16.322;2022-08-18T09:04:18;7.85;;;4.45;;
18265;SDS011;9259;48.194;16.322;2022-08-18T09:06:52;7.70;;;4.85;;
18265;SDS011;9259;48.194;16.322;2022-08-18T09:09:43;13.27;;;4.78;;
18265;SDS011;9259;48.194;16.322;2022-08-18T09:12:21;9.10;;;4.90;;
18265;SDS011;9259;48.194;16.322;2022-08-18T09:15:15;12.48;;;5.03;;
18265;SDS011;9259;48.194;16.322;2022-08-18T09:18:04;10.75;;;4.82;;
18265;SDS011;9259;48.194;16.322;2022-08-18T09:20:52;10.60;;;5.72;;
18265;SDS011;9259;48.194;16.322;2022-08-18T09:23:25;9.27;;;5.13;;
18265;SDS011;9259;48.194;16.322;2022-08-18T09:25:58;10.32;;;5.10;;
18265;SDS011;9259;48.194;16.322;2022-08-18T09:28:51;10.20;;;5.15;;
18265;SDS011;9259;48.194;16.322;2022-08-18T09:31:24;6.38;;;5.20;;
18265;SDS011;9259;48.194;16.322;2022-08-18T09:34:06;9.27;;;5.20;;
18265;SDS011;9259;48.194;16.322;2022-08-18T09:36:59;11.52;;;5.70;;
18265;SDS011;9259;48.194;16.322;2022-08-18T09:39:34;11.20;;;5.93;;
18265;SDS011;9259;48.194;16.322;2022-08-18T09:42:31;12.48;;;5.70;;
18265;SDS011;9259;48.194;16.322;2022-08-18T09:45:03;9.70;;;5.47;;
18265;SDS011;9259;48.194;16.322;2022-08-18T09:53:36;10.43;;;5.90;;
18265;SDS011;9259;48.194;16.322;2022-08-18T10:05:57;8.05;;;5.30;;
18265;SDS011;9259;48.194;16.322;2022-08-18T10:08:43;12.45;;;5.80;;
18265;SDS011;9259;48.194;16.322;2022-08-18T10:11:36;10.00;;;5.57;;
18265;SDS011;9259;48.194;16.322;2022-08-18T10:14:29;11.88;;;5.80;;
18265;SDS011;9259;48.194;16.322;2022-08-18T10:17:32;13.15;;;6.22;;
18265;SDS011;9259;48.194;16.322;2022-08-18T10:20:31;14.20;;;6.10;;
18265;SDS011;9259;48.194;16.322;2022-08-18T10:23:06;11.23;;;6.32;;
18265;SDS011;9259;48.194;16.322;2022-08-18T10:25:37;10.65;;;6.07;;
18265;SDS011;9259;48.194;16.322;2022-08-18T10:31:18;10.07;;;5.50;;
18265;SDS011;9259;48.194;16.322;2022-08-18T10:36:42;12.32;;;6.20;;
18265;SDS011;9259;48.194;16.322;2022-08-18T10:39:15;9.65;;;6.07;;
18265;SDS011;9259;48.194;16.322;2022-08-18T10:41:50;14.15;;;6.35;;
18265;SDS011;9259;48.194;16.322;2022-08-18T10:44:25;15.85;;;6.15;;
18265;SDS011;9259;48.194;16.322;2022-08-18T10:46:56;14.95;;;6.85;;
18265;SDS011;9259;48.194;16.322;2022-08-18T10:49:26;13.38;;;6.10;;
18265;SDS011;9259;48.194;16.322;2022-08-18T10:52:08;13.05;;;5.93;;
18265;SDS011;9259;48.194;16.322;2022-08-18T11:01:39;8.85;;;5.70;;
18265;SDS011;9259;48.194;16.322;2022-08-18T11:04:21;13.50;;;5.55;;
18265;SDS011;9259;48.194;16.322;2022-08-18T11:06:58;14.85;;;5.55;;
18265;SDS011;9259;48.194;16.322;2022-08-18T11:09:34;22.77;;;5.68;;
18265;SDS011;9259;48.194;16.322;2022-08-18T11:12:04;12.82;;;5.20;;
18265;SDS011;9259;48.194;16.322;2022-08-18T11:17:31;10.48;;;5.32;;
18265;SDS011;9259;48.194;16.322;2022-08-18T11:20:12;14.10;;;5.35;;
18265;SDS011;9259;48.194;16.322;2022-08-18T11:22:48;14.85;;;5.22;;
18265;SDS011;9259;48.194;16.322;2022-08-18T11:25:21;16.23;;;5.40;;
18265;SDS011;9259;48.194;16.322;2022-08-18T11:27:51;15.40;;;5.07;;
18265;SDS011;9259;48.194;16.322;2022-08-18T11:30:20;11.02;;;5.00;;
18265;SDS011;9259;48.194;16.322;2022-08-18T11:32:49;11.60;;;5.10;;
18265;SDS011;9259;48.194;16.322;2022-08-18T11:35:19;15.27;;;5.30;;
18265;SDS011;9259;48.194;16.322;2022-08-18T11:37:52;9.18;;;4.88;;
18265;SDS011;9259;48.194;16.322;2022-08-18T11:40:29;8.82;;;4.45;;
18265;SDS011;9259;48.194;16.322;2022-08-18T11:43:00;12.98;;;4.90;;
18265;SDS011;9259;48.194;16.322;2022-08-18T11:45:32;11.48;;;4.88;;
18265;SDS011;9259;48.194;16.322;2022-08-18T11:48:08;12.07;;;4.32;;
18265;SDS011;9259;48.194;16.322;2022-08-18T11:50:45;10.75;;;4.18;;
18265;SDS011;9259;48.194;16.322;2022-08-18T11:53:21;10.73;;;4.60;;
18265;SDS011;9259;48.194;16.322;2022-08-18T11:56:14;12.18;;;4.22;;
18265;SDS011;9259;48.194;16.322;2022-08-18T11:58:50;8.98;;;4.43;;
18265;SDS011;9259;48.194;16.322;2022-08-18T12:01:36;10.13;;;4.10;;
18265;SDS011;9259;48.194;16.322;2022-08-18T12:04:07;8.93;;;3.60;;
18265;SDS011;9259;48.194;16.322;2022-08-18T12:06:50;12.63;;;4.35;;
18265;SDS011;9259;48.194;16.322;2022-08-18T12:09:23;12.52;;;3.85;;
18265;SDS011;9259;48.194;16.322;2022-08-18T12:11:57;9.45;;;3.97;;
18265;SDS011;9259;48.194;16.322;2022-08-18T12:14:29;9.90;;;3.97;;
18265;SDS011;9259;48.194;16.322;2022-08-18T12:16:59;8.93;;;3.88;;
18265;SDS011;9259;48.194;16.322;2022-08-18T12:19:27;8.88;;;4.00;;
18265;SDS011;9259;48.194;16.322;2022-08-18T12:21:57;9.25;;;3.75;;
18265;SDS011;9259;48.194;16.322;2022-08-18T12:24:27;8.35;;;3.65;;
18265;SDS011;9259;48.194;16.322;2022-08-18T12:26:58;10.10;;;3.78;;
18265;SDS011;9259;48.194;16.322;2022-08-18T12:29:29;12.13;;;4.13;;
18265;SDS011;9259;48.194;16.322;2022-08-18T12:31:57;11.82;;;3.72;;
18265;SDS011;9259;48.194;16.322;2022-08-18T12:34:25;14.23;;;3.70;;
18265;SDS011;9259;48.194;16.322;2022-08-18T12:36:54;13.65;;;4.40;;
18265;SDS011;9259;48.194;16.322;2022-08-18T12:39:23;11.43;;;3.92;;
18265;SDS011;9259;48.194;16.322;2022-08-18T12:41:51;16.70;;;3.92;;
18265;SDS011;9259;48.194;16.322;2022-08-18T12:44:20;11.27;;;3.55;;
18265;SDS011;9259;48.194;16.322;2022-08-18T12:46:49;12.32;;;3.85;;
18265;SDS011;9259;48.194;16.322;2022-08-18T12:49:18;6.65;;;3.03;;
18265;SDS011;9259;48.194;16.322;2022-08-18T12:51:50;9.82;;;3.45;;
18265;SDS011;9259;48.194;16.322;2022-08-18T12:54:20;13.77;;;3.33;;
18265;SDS011;9259;48.194;16.322;2022-08-18T12:56:49;14.95;;;3.88;;
18265;SDS011;9259;48.194;16.322;2022-08-18T12:59:21;8.48;;;3.97;;
18265;SDS011;9259;48.194;16.322;2022-08-18T13:01:49;16.08;;;4.60;;
18265;SDS011;9259;48.194;16.322;2022-08-18T13:04:17;11.23;;;4.10;;
18265;SDS011;9259;48.194;16.322;2022-08-18T13:06:46;13.57;;;3.80;;
18265;SDS011;9259;48.194;16.322;2022-08-18T13:09:15;12.27;;;3.88;;
18265;SDS011;9259;48.194;16.322;2022-08-18T13:11:43;11.38;;;3.83;;
18265;SDS011;9259;48.194;16.322;2022-08-18T13:14:11;13.13;;;3.97;;
18265;SDS011;9259;48.194;16.322;2022-08-18T13:16:42;17.60;;;4.10;;
18265;SDS011;9259;48.194;16.322;2022-08-18T13:19:12;8.50;;;3.53;;
18265;SDS011;9259;48.194;16.322;2022-08-18T13:21:40;11.68;;;3.60;;
18265;SDS011;9259;48.194;16.322;2022-08-18T13:24:09;11.73;;;3.60;;
18265;SDS011;9259;48.194;16.322;2022-08-18T13:26:38;8.07;;;3.40;;
18265;SDS011;9259;48.194;16.322;2022-08-18T13:29:08;10.95;;;3.55;;
18265;SDS011;9259;48.194;16.322;2022-08-18T13:31:36;6.80;;;3.20;;
18265;SDS011;9259;48.194;16.322;2022-08-18T13:34:06;14.48;;;3.53;;
18265;SDS011;9259;48.194;16.322;2022-08-18T13:36:34;14.43;;;3.40;;
18265;SDS011;9259;48.194;16.322;2022-08-18T13:39:12;8.23;;;3.20;;
18265;SDS011;9259;48.194;16.322;2022-08-18T13:41:42;8.98;;;3.10;;
18265;SDS011;9259;48.194;16.322;2022-08-18T13:44:11;10.07;;;3.40;;
18265;SDS011;9259;48.194;16.322;2022-08-18T13:46:40;6.80;;;3.00;;
18265;SDS011;9259;48.194;16.322;2022-08-18T13:49:12;9.15;;;3.00;;
18265;SDS011;9259;48.194;16.322;2022-08-18T13:51:41;11.75;;;3.35;;
18265;SDS011;9259;48.194;16.322;2022-08-18T13:54:09;15.18;;;3.80;;
18265;SDS011;9259;48.194;16.322;2022-08-18T13:56:42;9.82;;;3.65;;
18265;SDS011;9259;48.194;16.322;2022-08-18T13:59:10;8.75;;;3.42;;
18265;SDS011;9259;48.194;16.322;2022-08-18T14:01:39;12.95;;;3.80;;
18265;SDS011;9259;48.194;16.322;2022-08-18T14:04:07;10.30;;;3.42;;
18265;SDS011;9259;48.194;16.322;2022-08-18T14:06:38;19.60;;;3.92;;
18265;SDS011;9259;48.194;16.322;2022-08-18T14:09:09;13.75;;;3.58;;
18265;SDS011;9259;48.194;16.322;2022-08-18T14:11:38;9.98;;;3.55;;
18265;SDS011;9259;48.194;16.322;2022-08-18T14:14:06;8.48;;;3.10;;
18265;SDS011;9259;48.194;16.322;2022-08-18T14:16:34;12.52;;;2.88;;
18265;SDS011;9259;48.194;16.322;2022-08-18T14:19:02;8.65;;;3.20;;
18265;SDS011;9259;48.194;16.322;2022-08-18T14:21:50;7.18;;;2.88;;
18265;SDS011;9259;48.194;16.322;2022-08-18T14:24:36;9.52;;;2.83;;
18265;SDS011;9259;48.194;16.322;2022-08-18T14:27:23;8.07;;;2.97;;
18265;SDS011;9259;48.194;16.322;2022-08-18T14:29:53;8.00;;;3.08;;
18265;SDS011;9259;48.194;16.322;2022-08-18T14:32:21;9.13;;;3.42;;
18265;SDS011;9259;48.194;16.322;2022-08-18T14:34:55;13.13;;;3.63;;
18265;SDS011;9259;48.194;16.322;2022-08-18T14:37:26;9.10;;;3.80;;
18265;SDS011;9259;48.194;16.322;2022-08-18T14:39:54;10.77;;;3.60;;
18265;SDS011;9259;48.194;16.322;2022-08-18T14:42:22;10.20;;;3.47;;
18265;SDS011;9259;48.194;16.322;2022-08-18T14:44:50;8.10;;;3.55;;
18265;SDS011;9259;48.194;16.322;2022-08-18T14:47:20;5.05;;;3.25;;
18265;SDS011;9259;48.194;16.322;2022-08-18T14:49:48;12.48;;;3.92;;
18265;SDS011;9259;48.194;16.322;2022-08-18T14:52:15;8.40;;;3.50;;
18265;SDS011;9259;48.194;16.322;2022-08-18T14:54:45;11.43;;;3.95;;
18265;SDS011;9259;48.194;16.322;2022-08-18T14:57:17;14.13;;;4.18;;
18265;SDS011;9259;48.194;16.322;2022-08-18T14:59:45;10.02;;;3.80;;
18265;SDS011;9259;48.194;16.322;2022-08-18T15:02:14;12.82;;;4.05;;
18265;SDS011;9259;48.194;16.322;2022-08-18T15:04:42;5.32;;;3.67;;
18265;SDS011;9259;48.194;16.322;2022-08-18T15:07:10;8.40;;;3.72;;
18265;SDS011;9259;48.194;16.322;2022-08-18T15:09:38;8.75;;;3.40;;
18265;SDS011;9259;48.194;16.322;2022-08-18T15:12:08;7.18;;;3.25;;
18265;SDS011;9259;48.194;16.322;2022-08-18T15:14:36;7.97;;;3.10;;
18265;SDS011;9259;48.194;16.322;2022-08-18T15:17:04;11.98;;;3.53;;
18265;SDS011;9259;48.194;16.322;2022-08-18T15:19:32;9.65;;;3.55;;
18265;SDS011;9259;48.194;16.322;2022-08-18T15:22:00;8.63;;;3.47;;
18265;SDS011;9259;48.194;16.322;2022-08-18T15:24:45;8.00;;;3.58;;
18265;SDS011;9259;48.194;16.322;2022-08-18T15:27:33;11.18;;;3.70;;
18265;SDS011;9259;48.194;16.322;2022-08-18T15:30:04;10.15;;;3.55;;
18265;SDS011;9259;48.194;16.322;2022-08-18T15:32:37;7.40;;;3.30;;
18265;SDS011;9259;48.194;16.322;2022-08-18T15:35:05;9.52;;;3.03;;
18265;SDS011;9259;48.194;16.322;2022-08-18T15:37:34;13.25;;;3.25;;
18265;SDS011;9259;48.194;16.322;2022-08-18T15:40:06;9.13;;;3.90;;
18265;SDS011;9259;48.194;16.322;2022-08-18T15:42:43;9.13;;;3.40;;
18265;SDS011;9259;48.194;16.322;2022-08-18T15:45:15;10.50;;;3.70;;
18265;SDS011;9259;48.194;16.322;2022-08-18T15:47:44;11.20;;;3.50;;
18265;SDS011;9259;48.194;16.322;2022-08-18T15:50:13;12.93;;;3.70;;
18265;SDS011;9259;48.194;16.322;2022-08-18T15:52:45;8.75;;;3.90;;